Time;durP1;ratioP1;P1;durP2;ratioP2;P2;SDS_P1;SDS_P2;PMS_P1;PMS_P2;Temp;Humidity;BMP_temperature;BMP_pressure;BME280_temperature;BME280_humidity;BME280_pressure;Samples;Min_cycle;Max_cycle;Signal;HPM_P1;HPM_P2
2022/04/15 00:00:11;;;;;;;23.15;10.77;;;;;;;;;;6304475;22;20534;-87
2022/04/15 00:03:19;;;;;;;22.50;10.07;;;;;;;;;;6322416;22;20153;-83
2022/04/15 00:06:26;;;;;;;15.60;8.63;;;;;;;;;;6324017;22;20169;-86
2022/04/15 00:09:33;;;;;;;19.98;8.88;;;;;;;;;;6325340;22;20169;-85
2022/04/15 00:12:39;;;;;;;26.38;9.88;;;;;;;;;;6324183;22;20501;-86
2022/04/15 00:15:44;;;;;;;24.02;10.23;;;;;;;;;;6324282;22;20173;-87
2022/04/15 00:18:51;;;;;;;21.05;9.77;;;;;;;;;;6304243;22;20235;-87
2022/04/15 00:21:57;;;;;;;24.35;10.75;;;;;;;;;;6324755;22;20149;-87
2022/04/15 00:25:02;;;;;;;20.17;9.43;;;;;;;;;;6305828;22;20164;-87
2022/04/15 00:28:09;;;;;;;23.73;10.00;;;;;;;;;;6304493;22;20172;-85
2022/04/15 00:31:15;;;;;;;24.45;11.93;;;;;;;;;;6305239;22;20172;-86
2022/04/15 00:34:21;;;;;;;31.52;15.68;;;;;;;;;;6305441;22;20161;-87
2022/04/15 00:37:27;;;;;;;31.83;11.82;;;;;;;;;;6306520;22;20188;-86
2022/04/15 00:40:32;;;;;;;26.70;10.85;;;;;;;;;;6305735;22;20196;-88
2022/04/15 00:43:37;;;;;;;21.42;10.93;;;;;;;;;;6305501;22;20172;-89
2022/04/15 00:46:42;;;;;;;21.05;11.13;;;;;;;;;;6307327;22;20173;-88
2022/04/15 00:49:49;;;;;;;22.73;10.55;;;;;;;;;;6324384;22;20177;-84
2022/04/15 00:52:55;;;;;;;31.35;11.50;;;;;;;;;;6304726;22;20497;-84
2022/04/15 00:56:03;;;;;;;29.70;11.85;;;;;;;;;;6325781;22;20176;-86
2022/04/15 00:59:08;;;;;;;19.95;9.75;;;;;;;;;;6306015;22;20242;-86
2022/04/15 01:02:17;;;;;;;21.25;10.30;;;;;;;;;;6305716;22;20597;-87
2022/04/15 01:05:24;;;;;;;19.13;9.63;;;;;;;;;;6305548;22;20615;-89
2022/04/15 01:08:30;;;;;;;29.00;11.63;;;;;;;;;;6303788;22;20165;-88
2022/04/15 01:11:36;;;;;;;21.25;10.35;;;;;;;;;;6323190;22;20165;-87
2022/04/15 01:14:42;;;;;;;19.30;10.52;;;;;;;;;;6321233;22;20180;-87
2022/04/15 01:17:49;;;;;;;21.42;10.27;;;;;;;;;;6303112;22;20184;-87
2022/04/15 01:20:55;;;;;;;16.83;9.55;;;;;;;;;;6302259;22;20235;-88
2022/04/15 01:24:03;;;;;;;20.73;9.25;;;;;;;;;;6320701;22;20613;-87
2022/04/15 01:27:09;;;;;;;22.13;10.23;;;;;;;;;;6319878;22;20161;-88
2022/04/15 01:30:15;;;;;;;26.70;9.98;;;;;;;;;;6319777;22;20485;-85
2022/04/15 01:33:20;;;;;;;20.00;10.52;;;;;;;;;;6302782;22;20153;-87
2022/04/15 01:36:25;;;;;;;19.30;9.93;;;;;;;;;;6302254;22;20168;-86
2022/04/15 01:39:33;;;;;;;19.05;10.30;;;;;;;;;;6302357;22;20192;-87
2022/04/15 01:42:41;;;;;;;22.52;10.70;;;;;;;;;;6298776;22;20164;-87
2022/04/15 01:45:47;;;;;;;21.30;11.75;;;;;;;;;;6317330;22;20148;-87
2022/04/15 01:48:52;;;;;;;22.50;11.82;;;;;;;;;;6299856;22;20244;-87
2022/04/15 01:51:58;;;;;;;20.05;11.73;;;;;;;;;;6300369;22;20173;-87
2022/04/15 01:55:05;;;;;;;27.67;13.40;;;;;;;;;;6299206;22;20165;-87
2022/04/15 01:58:10;;;;;;;24.70;13.95;;;;;;;;;;6301841;22;20280;-87
2022/04/15 02:01:16;;;;;;;24.45;13.20;;;;;;;;;;6317937;22;20193;-85
2022/04/15 02:04:21;;;;;;;28.83;13.73;;;;;;;;;;6298223;22;20169;-85
2022/04/15 02:07:26;;;;;;;28.30;15.10;;;;;;;;;;6299747;22;20164;-89
2022/04/15 02:10:32;;;;;;;28.40;16.95;;;;;;;;;;6300524;22;20247;-88
2022/04/15 02:13:37;;;;;;;27.98;15.00;;;;;;;;;;6299695;22;20288;-86
2022/04/15 02:16:45;;;;;;;24.83;15.40;;;;;;;;;;6314544;22;20624;-86
2022/04/15 02:19:52;;;;;;;26.98;15.95;;;;;;;;;;6296624;22;20177;-86
2022/04/15 02:22:57;;;;;;;28.23;16.10;;;;;;;;;;6297406;22;20187;-86
2022/04/15 02:26:03;;;;;;;28.70;16.67;;;;;;;;;;6297901;22;20247;-86
2022/04/15 02:29:08;;;;;;;24.88;15.55;;;;;;;;;;6297785;22;20612;-87
2022/04/15 02:32:13;;;;;;;32.05;16.27;;;;;;;;;;6315397;22;20188;-87
2022/04/15 02:35:18;;;;;;;25.80;15.95;;;;;;;;;;6298977;22;20165;-85
2022/04/15 02:38:23;;;;;;;29.08;15.93;;;;;;;;;;6298154;22;20282;-84
2022/04/15 02:41:29;;;;;;;30.02;16.13;;;;;;;;;;6298620;22;20223;-86
2022/04/15 02:44:34;;;;;;;31.33;16.63;;;;;;;;;;6298977;22;20165;-87
2022/04/15 02:47:41;;;;;;;26.52;16.17;;;;;;;;;;6301290;22;20204;-87
2022/04/15 02:50:47;;;;;;;30.17;17.15;;;;;;;;;;6299764;22;20674;-87
2022/04/15 02:53:53;;;;;;;29.70;16.70;;;;;;;;;;6316698;22;20153;-86
2022/04/15 02:56:59;;;;;;;28.40;16.75;;;;;;;;;;6303291;22;20169;-87
2022/04/15 03:00:06;;;;;;;31.05;17.85;;;;;;;;;;6301072;22;20189;-86
2022/04/15 03:03:11;;;;;;;28.70;16.95;;;;;;;;;;6300507;22;20218;-85
2022/04/15 03:06:16;;;;;;;36.05;19.55;;;;;;;;;;6319238;22;20180;-86
2022/04/15 03:09:22;;;;;;;36.25;20.20;;;;;;;;;;6298895;22;20633;-85
2022/04/15 03:12:29;;;;;;;32.97;20.10;;;;;;;;;;6299864;22;20149;-86
2022/04/15 03:15:37;;;;;;;34.75;19.90;;;;;;;;;;6300385;22;20169;-88
2022/04/15 03:18:42;;;;;;;36.75;20.55;;;;;;;;;;6317726;22;20165;-88
2022/04/15 03:21:47;;;;;;;36.15;21.25;;;;;;;;;;6300224;22;20474;-87
2022/04/15 03:24:53;;;;;;;38.55;22.50;;;;;;;;;;6296772;22;20165;-88
2022/04/15 03:28:00;;;;;;;39.75;21.85;;;;;;;;;;6317638;22;20208;-86
2022/04/15 03:31:05;;;;;;;42.00;21.95;;;;;;;;;;6300878;22;20153;-88
2022/04/15 03:34:10;;;;;;;37.28;21.92;;;;;;;;;;6298872;22;20283;-87
2022/04/15 03:37:15;;;;;;;39.78;23.33;;;;;;;;;;6297855;22;20523;-87
2022/04/15 03:40:22;;;;;;;41.67;22.85;;;;;;;;;;6316566;22;20204;-88
2022/04/15 03:43:30;;;;;;;42.47;22.48;;;;;;;;;;6298378;22;20235;-85
2022/04/15 03:46:35;;;;;;;35.92;21.40;;;;;;;;;;6297805;22;20204;-87
2022/04/15 03:49:40;;;;;;;36.63;22.10;;;;;;;;;;6299934;22;20177;-89
2022/04/15 03:52:49;;;;;;;43.28;23.75;;;;;;;;;;6319473;22;20177;-88
2022/04/15 03:55:54;;;;;;;39.38;23.60;;;;;;;;;;6300370;22;20172;-86
2022/04/15 03:59:01;;;;;;;39.70;24.02;;;;;;;;;;6298160;22;20187;-86
2022/04/15 04:02:06;;;;;;;42.30;25.27;;;;;;;;;;6317891;22;20153;-87
2022/04/15 04:05:12;;;;;;;39.92;24.92;;;;;;;;;;6298756;22;20499;-89
2022/04/15 04:08:17;;;;;;;46.38;25.30;;;;;;;;;;6300233;22;20168;-86
2022/04/15 04:11:23;;;;;;;43.83;25.10;;;;;;;;;;6298826;22;20184;-87
2022/04/15 04:14:29;;;;;;;45.63;24.67;;;;;;;;;;6316274;22;20651;-86
2022/04/15 04:17:34;;;;;;;42.42;23.38;;;;;;;;;;6314241;22;20168;-86
2022/04/15 04:20:40;;;;;;;43.17;24.58;;;;;;;;;;6298882;22;20292;-87
2022/04/15 04:23:45;;;;;;;46.08;25.13;;;;;;;;;;6298588;22;20160;-86
2022/04/15 04:26:50;;;;;;;41.40;24.75;;;;;;;;;;6298734;22;20166;-85
2022/04/15 04:29:56;;;;;;;45.97;24.95;;;;;;;;;;6299563;22;20169;-87
2022/04/15 04:33:01;;;;;;;36.65;23.10;;;;;;;;;;6316817;22;20149;-85
2022/04/15 04:36:06;;;;;;;41.08;23.33;;;;;;;;;;6300779;22;20188;-87
2022/04/15 04:39:11;;;;;;;44.15;24.45;;;;;;;;;;6300401;22;20149;-87
2022/04/15 04:42:16;;;;;;;39.97;23.85;;;;;;;;;;6319619;22;20608;-86
2022/04/15 04:45:23;;;;;;;43.75;25.15;;;;;;;;;;6301008;22;20215;-87
2022/04/15 04:48:30;;;;;;;40.20;24.42;;;;;;;;;;6300853;22;20192;-86
2022/04/15 04:51:36;;;;;;;44.40;24.33;;;;;;;;;;6300063;22;20177;-88
2022/04/15 04:54:41;;;;;;;46.95;25.10;;;;;;;;;;6302153;22;20239;-86
2022/04/15 04:57:46;;;;;;;39.00;24.92;;;;;;;;;;6320085;22;20207;-87
2022/04/15 05:00:52;;;;;;;43.90;24.98;;;;;;;;;;6302571;22;20698;-87
2022/04/15 05:03:57;;;;;;;43.20;25.67;;;;;;;;;;6301063;22;20183;-86
2022/04/15 05:07:15;;;;;;;38.90;25.02;;;;;;;;;;6302211;22;20284;-84
2022/04/15 05:10:23;;;;;;;47.03;25.92;;;;;;;;;;6301925;22;20165;-85
2022/04/15 05:13:28;;;;;;;43.47;25.95;;;;;;;;;;6303116;22;20270;-87
2022/04/15 05:16:35;;;;;;;42.80;25.48;;;;;;;;;;6301348;22;20245;-89
2022/04/15 05:19:45;;;;;;;40.47;25.02;;;;;;;;;;6319663;22;20228;-87
2022/04/15 05:22:50;;;;;;;43.88;24.92;;;;;;;;;;6299507;22;20166;-88
2022/04/15 05:25:55;;;;;;;39.38;25.17;;;;;;;;;;6299806;22;20177;-88
2022/04/15 05:29:00;;;;;;;36.53;22.95;;;;;;;;;;6300676;22;20177;-86
2022/04/15 05:32:07;;;;;;;38.50;23.23;;;;;;;;;;6319878;22;20152;-87
2022/04/15 05:35:12;;;;;;;39.55;24.17;;;;;;;;;;6283706;22;20220;-87
2022/04/15 05:38:18;;;;;;;43.55;24.63;;;;;;;;;;6302137;22;20192;-88
2022/04/15 05:41:23;;;;;;;43.85;25.42;;;;;;;;;;6320051;22;20232;-86
2022/04/15 05:44:28;;;;;;;39.88;24.52;;;;;;;;;;6301877;22;20169;-87
2022/04/15 05:47:36;;;;;;;38.45;23.23;;;;;;;;;;6301634;22;20539;-86
2022/04/15 05:50:41;;;;;;;41.47;24.52;;;;;;;;;;6302206;22;20170;-86
2022/04/15 05:53:46;;;;;;;41.30;24.02;;;;;;;;;;6302071;22;20172;-87
2022/04/15 05:56:51;;;;;;;37.28;23.70;;;;;;;;;;6299526;22;20165;-86
2022/04/15 05:59:56;;;;;;;42.20;23.77;;;;;;;;;;6319213;22;20274;-88
2022/04/15 06:03:07;;;;;;;37.72;22.77;;;;;;;;;;6300899;22;20172;-86
2022/04/15 06:06:11;;;;;;;38.83;22.77;;;;;;;;;;6300501;22;20172;-87
2022/04/15 06:09:18;;;;;;;44.63;22.90;;;;;;;;;;6300221;22;20236;-87
2022/04/15 06:12:25;;;;;;;37.95;23.45;;;;;;;;;;6300335;22;20213;-87
2022/04/15 06:15:31;;;;;;;38.28;23.83;;;;;;;;;;6300048;22;20292;-87
2022/04/15 06:18:38;;;;;;;45.47;24.83;;;;;;;;;;6299175;22;20284;-86
2022/04/15 06:21:43;;;;;;;40.22;24.58;;;;;;;;;;6298248;22;20243;-85
2022/04/15 06:24:48;;;;;;;40.00;23.08;;;;;;;;;;6300867;22;20200;-85
2022/04/15 06:27:54;;;;;;;44.60;26.10;;;;;;;;;;6302391;22;20177;-86
2022/04/15 06:31:00;;;;;;;40.55;23.45;;;;;;;;;;6303540;22;20224;-86
2022/04/15 06:34:07;;;;;;;39.53;23.58;;;;;;;;;;6303831;22;20184;-87
2022/04/15 06:37:12;;;;;;;38.15;23.83;;;;;;;;;;6304349;22;20272;-86
2022/04/15 06:40:17;;;;;;;38.75;23.45;;;;;;;;;;6318550;22;20196;-87
2022/04/15 06:43:22;;;;;;;39.17;23.85;;;;;;;;;;6303715;22;20176;-86
2022/04/15 06:46:28;;;;;;;38.85;23.95;;;;;;;;;;6316425;22;20165;-87
2022/04/15 06:49:35;;;;;;;43.03;25.95;;;;;;;;;;6318643;22;20157;-88
2022/04/15 06:52:40;;;;;;;39.17;25.13;;;;;;;;;;6298044;22;20173;-88
2022/04/15 06:55:45;;;;;;;40.80;25.10;;;;;;;;;;6317066;22;20184;-87
2022/04/15 06:58:51;;;;;;;39.97;24.20;;;;;;;;;;6299787;22;20655;-86
2022/04/15 07:01:57;;;;;;;37.40;24.10;;;;;;;;;;6320899;22;20200;-87
2022/04/15 07:05:05;;;;;;;43.08;25.60;;;;;;;;;;6299831;22;20482;-86
2022/04/15 07:08:10;;;;;;;40.83;23.90;;;;;;;;;;6302261;22;20623;-86
2022/04/15 07:11:15;;;;;;;35.88;22.52;;;;;;;;;;6301367;22;20177;-87
2022/04/15 07:14:20;;;;;;;41.88;23.20;;;;;;;;;;6301241;22;20212;-87
2022/04/15 07:17:26;;;;;;;42.28;24.17;;;;;;;;;;6300338;22;20173;-86
2022/04/15 07:20:33;;;;;;;44.05;24.50;;;;;;;;;;6299016;22;20211;-89
2022/04/15 07:23:38;;;;;;;40.95;24.63;;;;;;;;;;6300690;22;20173;-85
2022/04/15 07:26:44;;;;;;;36.28;21.60;;;;;;;;;;6316800;22;20165;-86
2022/04/15 07:29:49;;;;;;;37.10;21.50;;;;;;;;;;6298910;22;20149;-88
2022/04/15 07:32:54;;;;;;;33.42;20.42;;;;;;;;;;6300583;22;20165;-88
2022/04/15 07:36:03;;;;;;;34.55;19.40;;;;;;;;;;6298507;22;20165;-87
2022/04/15 07:39:09;;;;;;;35.90;21.92;;;;;;;;;;6299847;22;20640;-84
2022/04/15 07:42:16;;;;;;;36.40;20.30;;;;;;;;;;6301806;22;20236;-87
2022/04/15 07:45:21;;;;;;;31.70;20.83;;;;;;;;;;6322492;22;20188;-87
2022/04/15 07:48:26;;;;;;;34.40;21.80;;;;;;;;;;6321750;22;20221;-85
2022/04/15 07:51:33;;;;;;;31.27;20.08;;;;;;;;;;6322455;22;20619;-86
2022/04/15 07:54:38;;;;;;;33.25;20.20;;;;;;;;;;6301023;22;20196;-87
2022/04/15 07:57:43;;;;;;;31.45;20.50;;;;;;;;;;6302913;22;20149;-87
2022/04/15 08:00:49;;;;;;;31.73;20.48;;;;;;;;;;6319927;22;20180;-87
2022/04/15 08:03:55;;;;;;;29.35;19.33;;;;;;;;;;6300693;22;20181;-87
2022/04/15 08:07:01;;;;;;;29.85;18.00;;;;;;;;;;6301726;22;20168;-87
2022/04/15 08:10:06;;;;;;;25.08;16.20;;;;;;;;;;6300341;22;20173;-87
2022/04/15 08:13:12;;;;;;;25.85;15.32;;;;;;;;;;6318592;22;20177;-86
2022/04/15 08:16:18;;;;;;;25.08;14.38;;;;;;;;;;6298500;22;20161;-88
2022/04/15 08:19:25;;;;;;;20.33;13.35;;;;;;;;;;6317519;22;20181;-85
2022/04/15 08:22:34;;;;;;;19.63;11.95;;;;;;;;;;6300588;22;20231;-87
2022/04/15 08:25:39;;;;;;;18.10;11.25;;;;;;;;;;6301800;22;20185;-84
2022/04/15 08:28:44;;;;;;;16.35;10.57;;;;;;;;;;6303047;22;20284;-86
2022/04/15 08:31:50;;;;;;;15.43;10.15;;;;;;;;;;6303325;22;20153;-87
2022/04/15 08:34:56;;;;;;;19.48;9.75;;;;;;;;;;6303764;22;20164;-89
2022/04/15 08:38:03;;;;;;;15.13;9.20;;;;;;;;;;6323439;22;20288;-87
2022/04/15 08:41:09;;;;;;;18.08;10.20;;;;;;;;;;6305668;22;20192;-87
2022/04/15 08:44:14;;;;;;;13.88;10.00;;;;;;;;;;6303528;22;20172;-88
2022/04/15 08:47:20;;;;;;;15.88;9.68;;;;;;;;;;6301677;22;20215;-86
2022/04/15 08:50:26;;;;;;;15.75;9.68;;;;;;;;;;6303116;22;20152;-88
2022/04/15 08:53:33;;;;;;;16.35;8.90;;;;;;;;;;6303579;22;20299;-89
2022/04/15 08:56:38;;;;;;;15.18;8.88;;;;;;;;;;6320582;22;20192;-90
2022/04/15 08:59:43;;;;;;;13.57;8.70;;;;;;;;;;6320660;22;20526;-88
2022/04/15 09:02:51;;;;;;;11.15;7.70;;;;;;;;;;6320123;22;20189;-87
2022/04/15 09:05:59;;;;;;;12.18;7.60;;;;;;;;;;6320584;22;20177;-89
2022/04/15 09:09:08;;;;;;;11.35;7.45;;;;;;;;;;6320337;22;20240;-87
2022/04/15 09:12:16;;;;;;;15.52;7.78;;;;;;;;;;6322612;22;20173;-88
2022/04/15 09:15:22;;;;;;;16.92;7.85;;;;;;;;;;6320262;22;20161;-89
2022/04/15 09:18:37;;;;;;;11.80;6.50;;;;;;;;;;6319164;22;20165;-87
2022/04/15 09:21:44;;;;;;;11.82;7.05;;;;;;;;;;6319808;22;20177;-88
2022/04/15 09:24:51;;;;;;;10.27;6.40;;;;;;;;;;6302257;22;20201;-88
2022/04/15 09:27:57;;;;;;;9.73;7.05;;;;;;;;;;6303435;22;20165;-88
2022/04/15 09:31:02;;;;;;;8.20;6.13;;;;;;;;;;6324982;22;20189;-89
2022/04/15 09:34:08;;;;;;;8.85;5.95;;;;;;;;;;6325555;22;20169;-89
2022/04/15 09:37:19;;;;;;;8.90;6.97;;;;;;;;;;6324301;22;20294;-86
2022/04/15 09:40:35;;;;;;;8.93;6.55;;;;;;;;;;6322838;22;20205;-89
2022/04/15 09:43:48;;;;;;;10.05;5.80;;;;;;;;;;6277733;22;20169;-88
2022/04/15 09:46:56;;;;;;;7.88;5.70;;;;;;;;;;6278013;22;20213;-90
2022/04/15 09:50:03;;;;;;;10.10;5.22;;;;;;;;;;6275982;22;20160;-87
2022/04/15 09:53:11;;;;;;;9.25;5.68;;;;;;;;;;6276797;22;20154;-88
2022/04/15 09:56:18;;;;;;;8.60;5.75;;;;;;;;;;6273825;22;20195;-88
2022/04/15 09:59:24;;;;;;;9.20;5.03;;;;;;;;;;6277523;22;20173;-89
2022/04/15 10:02:31;;;;;;;6.35;4.88;;;;;;;;;;6274994;22;20292;-88
2022/04/15 10:05:38;;;;;;;6.15;4.53;;;;;;;;;;6275238;22;20229;-88
2022/04/15 10:08:44;;;;;;;5.28;4.28;;;;;;;;;;6275146;22;20148;-89
2022/04/15 10:11:51;;;;;;;7.05;4.50;;;;;;;;;;6273363;22;20165;-89
2022/04/15 10:14:56;;;;;;;9.98;5.03;;;;;;;;;;6273891;22;20211;-90
2022/04/15 10:18:02;;;;;;;11.77;5.15;;;;;;;;;;6275964;22;20154;-89
2022/04/15 10:21:07;;;;;;;7.13;4.40;;;;;;;;;;6274361;22;20184;-88
2022/04/15 10:24:13;;;;;;;7.05;4.80;;;;;;;;;;6273907;22;20173;-88
2022/04/15 10:27:26;;;;;;;7.95;4.40;;;;;;;;;;6274294;22;20178;-87
2022/04/15 10:30:31;;;;;;;5.30;3.72;;;;;;;;;;6272296;22;20170;-88
2022/04/15 10:33:36;;;;;;;6.18;4.13;;;;;;;;;;6272784;22;20161;-86
2022/04/15 10:36:45;;;;;;;7.55;4.72;;;;;;;;;;6272197;22;20629;-86
2022/04/15 10:39:51;;;;;;;8.75;4.50;;;;;;;;;;6271325;22;20169;-88
2022/04/15 10:43:04;;;;;;;12.07;4.85;;;;;;;;;;6243566;22;20205;-89
2022/04/15 10:46:13;;;;;;;12.75;4.65;;;;;;;;;;6241498;22;20170;-87
2022/04/15 10:49:21;;;;;;;7.60;4.60;;;;;;;;;;6243333;23;20199;-90
2022/04/15 10:52:30;;;;;;;8.10;4.00;;;;;;;;;;6242310;23;20179;-89
2022/04/15 10:55:43;;;;;;;7.68;4.85;;;;;;;;;;6260731;22;20170;-87
2022/04/15 11:02:40;;;;;;;7.40;4.97;;;;;;;;;;6242625;23;20178;-88
2022/04/15 11:05:58;;;;;;;8.25;5.07;;;;;;;;;;6238864;23;20147;-89
2022/04/15 11:09:16;;;;;;;7.70;4.55;;;;;;;;;;6240959;22;20158;-88
2022/04/15 11:12:32;;;;;;;7.65;4.93;;;;;;;;;;6241733;22;20278;-88
2022/04/15 11:15:58;;;;;;;11.45;5.88;;;;;;;;;;6241709;23;20492;-87
2022/04/15 11:22:57;;;;;;;12.77;5.85;;;;;;;;;;6242573;23;20195;-88
2022/04/15 11:26:04;;;;;;;10.68;5.82;;;;;;;;;;6243803;23;20159;-86
2022/04/15 11:29:11;;;;;;;8.77;5.30;;;;;;;;;;6244058;23;20170;-86
2022/04/15 11:32:16;;;;;;;8.80;5.03;;;;;;;;;;6243974;22;20182;-87
2022/04/15 11:35:29;;;;;;;9.60;5.38;;;;;;;;;;6244558;23;20178;-88
2022/04/15 11:38:37;;;;;;;8.45;5.35;;;;;;;;;;6244621;22;20311;-88
2022/04/15 11:41:45;;;;;;;12.05;5.43;;;;;;;;;;6244100;22;20190;-88
2022/04/15 11:44:51;;;;;;;10.07;5.28;;;;;;;;;;6243769;23;20169;-89
2022/04/15 11:48:15;;;;;;;7.60;4.80;;;;;;;;;;6243564;23;20166;-88
2022/04/15 11:51:25;;;;;;;6.90;4.70;;;;;;;;;;6261205;22;20170;-88
2022/04/15 11:54:33;;;;;;;6.45;3.40;;;;;;;;;;6243468;23;20498;-88
2022/04/15 11:57:38;;;;;;;6.28;4.00;;;;;;;;;;6244392;23;20170;-89
2022/04/15 12:00:44;;;;;;;7.63;3.88;;;;;;;;;;6243583;23;20528;-87
2022/04/15 12:03:50;;;;;;;6.93;3.65;;;;;;;;;;6243668;23;20189;-89
2022/04/15 12:06:54;;;;;;;8.40;4.20;;;;;;;;;;6244259;22;20154;-87
2022/04/15 12:10:02;;;;;;;6.40;3.80;;;;;;;;;;6245742;22;20214;-86
2022/04/15 12:13:11;;;;;;;10.05;3.65;;;;;;;;;;6247894;22;20162;-87
2022/04/15 12:16:16;;;;;;;5.05;3.65;;;;;;;;;;6243164;23;20162;-89
2022/04/15 12:19:22;;;;;;;12.70;4.15;;;;;;;;;;6243126;23;20206;-88
2022/04/15 12:22:28;;;;;;;9.00;4.95;;;;;;;;;;6244391;22;20227;-87
2022/04/15 12:26:09;;;;;;;7.20;4.68;;;;;;;;;;6243864;22;20174;-88
2022/04/15 12:32:39;;;;;;;8.07;4.15;;;;;;;;;;6242687;23;20171;-87
2022/04/15 12:35:58;;;;;;;7.32;3.95;;;;;;;;;;6245545;22;20170;-87
2022/04/15 12:39:13;;;;;;;7.05;3.75;;;;;;;;;;6244916;23;20174;-87
2022/04/15 12:42:29;;;;;;;6.57;3.40;;;;;;;;;;6269172;22;20209;-87
2022/04/15 12:45:35;;;;;;;7.72;3.30;;;;;;;;;;6275315;22;20153;-86
2022/04/15 12:48:50;;;;;;;6.25;3.25;;;;;;;;;;6276881;22;20225;-87
2022/04/15 12:51:58;;;;;;;4.95;3.03;;;;;;;;;;6275618;22;20170;-88
2022/04/15 12:55:04;;;;;;;5.68;2.92;;;;;;;;;;6275168;22;20166;-88
2022/04/15 12:58:19;;;;;;;5.75;3.00;;;;;;;;;;6276570;22;20150;-88
2022/04/15 13:01:25;;;;;;;8.73;3.67;;;;;;;;;;6275034;22;20166;-87
2022/04/15 13:04:30;;;;;;;3.97;2.70;;;;;;;;;;6273728;22;20226;-89
2022/04/15 13:07:36;;;;;;;6.13;4.20;;;;;;;;;;6274408;22;20228;-88
2022/04/15 13:10:42;;;;;;;8.93;4.30;;;;;;;;;;6275447;22;20185;-88
2022/04/15 13:13:49;;;;;;;11.75;5.30;;;;;;;;;;6272815;22;20170;-88
2022/04/15 13:16:56;;;;;;;7.85;5.03;;;;;;;;;;6277746;22;20214;-88
2022/04/15 13:20:02;;;;;;;7.35;4.80;;;;;;;;;;6275138;22;20165;-88
2022/04/15 13:23:07;;;;;;;7.32;5.00;;;;;;;;;;6274949;22;20205;-87
2022/04/15 13:26:13;;;;;;;8.30;5.20;;;;;;;;;;6275844;22;20208;-89
2022/04/15 13:29:21;;;;;;;8.77;5.18;;;;;;;;;;6275278;22;20217;-88
2022/04/15 13:32:26;;;;;;;8.18;5.18;;;;;;;;;;6276635;22;20166;-88
2022/04/15 13:35:32;;;;;;;8.43;5.88;;;;;;;;;;6274912;22;20277;-88
2022/04/15 13:38:38;;;;;;;10.57;5.97;;;;;;;;;;6274314;22;20154;-87
2022/04/15 13:41:43;;;;;;;12.32;6.40;;;;;;;;;;6262610;22;20221;-89
2022/04/15 13:44:50;;;;;;;8.25;5.40;;;;;;;;;;6246364;23;20218;-88
2022/04/15 13:47:55;;;;;;;9.13;5.80;;;;;;;;;;6247346;22;20146;-89
2022/04/15 13:51:02;;;;;;;10.88;5.85;;;;;;;;;;6246175;22;20158;-88
2022/04/15 13:57:30;;;;;;;10.00;5.60;;;;;;;;;;6245706;22;20171;-88
2022/04/15 14:00:37;;;;;;;9.07;6.20;;;;;;;;;;6243936;23;20488;-87
2022/04/15 14:03:42;;;;;;;8.38;6.15;;;;;;;;;;6246875;22;20198;-89
2022/04/15 14:06:51;;;;;;;10.18;6.80;;;;;;;;;;6243283;22;20313;-88
2022/04/15 14:09:57;;;;;;;10.32;6.90;;;;;;;;;;6245223;22;20159;-89
2022/04/15 14:13:04;;;;;;;10.32;6.30;;;;;;;;;;6246036;22;20166;-90
2022/04/15 14:16:11;;;;;;;11.02;6.45;;;;;;;;;;6244566;23;20166;-88
2022/04/15 14:19:17;;;;;;;11.05;6.82;;;;;;;;;;6245464;23;20162;-88
2022/04/15 14:22:22;;;;;;;9.50;5.88;;;;;;;;;;6246923;22;20199;-86
2022/04/15 14:25:29;;;;;;;9.90;6.47;;;;;;;;;;6261996;22;20170;-85
2022/04/15 14:28:36;;;;;;;10.80;6.07;;;;;;;;;;6247786;23;20166;-88
2022/04/15 14:31:44;;;;;;;11.38;7.13;;;;;;;;;;6262456;22;20166;-88
2022/04/15 14:34:52;;;;;;;9.75;6.68;;;;;;;;;;6247079;23;20224;-87
2022/04/15 14:37:58;;;;;;;12.45;6.97;;;;;;;;;;6244422;22;20146;-90
2022/04/15 14:41:05;;;;;;;11.88;6.25;;;;;;;;;;6253362;22;20604;-88
2022/04/15 14:44:10;;;;;;;8.10;5.72;;;;;;;;;;6291004;22;20182;-88
2022/04/15 14:47:17;;;;;;;8.73;5.45;;;;;;;;;;6274032;22;20170;-87
2022/04/15 14:50:22;;;;;;;8.20;5.18;;;;;;;;;;6273347;22;20165;-86
2022/04/15 14:53:30;;;;;;;10.27;5.13;;;;;;;;;;6270748;22;20255;-88
2022/04/15 14:56:35;;;;;;;8.55;4.93;;;;;;;;;;6291726;22;20162;-88
2022/04/15 14:59:40;;;;;;;7.13;4.90;;;;;;;;;;6272351;22;20158;-89
2022/04/15 15:02:48;;;;;;;8.10;5.00;;;;;;;;;;6272529;22;20616;-88
2022/04/15 15:05:54;;;;;;;9.18;4.82;;;;;;;;;;6272456;22;20642;-88
2022/04/15 15:09:00;;;;;;;7.95;4.40;;;;;;;;;;6271309;22;20185;-87
2022/04/15 15:12:06;;;;;;;8.60;4.05;;;;;;;;;;6274395;22;20208;-86
2022/04/15 15:15:11;;;;;;;7.50;4.45;;;;;;;;;;6273756;22;20166;-87
2022/04/15 15:18:18;;;;;;;9.73;4.20;;;;;;;;;;6274263;22;20209;-87
2022/04/15 15:21:23;;;;;;;7.15;4.05;;;;;;;;;;6274099;22;20170;-89
2022/04/15 15:31:15;;;;;;;7.90;3.83;;;;;;;;;;6290311;22;20174;-89
2022/04/15 15:34:22;;;;;;;8.75;3.60;;;;;;;;;;6291243;22;20166;-88
2022/04/15 15:37:27;;;;;;;5.40;3.30;;;;;;;;;;6271184;22;20158;-87
2022/04/15 15:40:33;;;;;;;5.40;3.55;;;;;;;;;;6272804;22;20150;-87
2022/04/15 15:43:41;;;;;;;6.32;3.30;;;;;;;;;;6271588;22;20197;-88
2022/04/15 15:46:46;;;;;;;5.90;3.38;;;;;;;;;;6275108;22;20497;-86
2022/04/15 15:49:54;;;;;;;4.90;2.95;;;;;;;;;;6272269;22;20170;-87
2022/04/15 15:53:00;;;;;;;4.80;2.40;;;;;;;;;;6274367;22;20213;-87
2022/04/15 15:56:05;;;;;;;6.75;3.10;;;;;;;;;;6273280;22;20237;-89
2022/04/15 15:59:13;;;;;;;5.82;2.83;;;;;;;;;;6273607;22;20190;-88
2022/04/15 16:02:19;;;;;;;4.95;2.58;;;;;;;;;;6273868;22;20185;-86
2022/04/15 16:05:26;;;;;;;5.35;2.72;;;;;;;;;;6273195;22;20210;-89
2022/04/15 16:08:31;;;;;;;4.93;2.45;;;;;;;;;;6274462;22;20166;-87
2022/04/15 16:11:37;;;;;;;4.78;1.98;;;;;;;;;;6274843;22;20161;-86
2022/04/15 16:14:48;;;;;;;3.38;2.10;;;;;;;;;;6273961;22;20492;-87
2022/04/15 16:17:53;;;;;;;5.68;2.47;;;;;;;;;;6291495;22;20170;-89
2022/04/15 16:21:00;;;;;;;6.38;2.80;;;;;;;;;;6273681;22;20153;-87
2022/04/15 16:24:05;;;;;;;8.77;3.15;;;;;;;;;;6275133;22;20176;-86
2022/04/15 16:27:10;;;;;;;5.45;3.00;;;;;;;;;;6271352;22;20165;-87
2022/04/15 16:30:16;;;;;;;4.70;2.30;;;;;;;;;;6274477;22;20157;-88
2022/04/15 16:33:21;;;;;;;6.18;2.40;;;;;;;;;;6272843;22;20170;-89
2022/04/15 16:36:41;;;;;;;7.60;2.67;;;;;;;;;;6275355;22;20224;-87
2022/04/15 16:39:51;;;;;;;8.80;2.40;;;;;;;;;;6273753;22;20185;-87
2022/04/15 16:42:58;;;;;;;3.05;1.70;;;;;;;;;;6277053;22;20667;-88
2022/04/15 16:46:03;;;;;;;10.85;6.65;;;;;;;;;;6274338;22;20240;-88
2022/04/15 16:49:13;;;;;;;2.95;1.73;;;;;;;;;;6276939;22;20173;-88
2022/04/15 16:52:23;;;;;;;4.13;1.77;;;;;;;;;;6278889;22;20544;-88
2022/04/15 16:58:54;;;;;;;3.10;1.70;;;;;;;;;;6295333;22;20181;-88
2022/04/15 17:01:59;;;;;;;4.20;1.70;;;;;;;;;;6276132;22;20218;-86
2022/04/15 17:05:05;;;;;;;2.22;1.40;;;;;;;;;;6275737;22;20248;-87
2022/04/15 17:08:11;;;;;;;5.90;1.60;;;;;;;;;;6276670;22;20174;-88
2022/04/15 17:11:17;;;;;;;6.68;2.30;;;;;;;;;;6277754;22;20238;-87
2022/04/15 17:14:23;;;;;;;3.58;1.67;;;;;;;;;;6276323;22;20165;-87
2022/04/15 17:17:28;;;;;;;4.43;2.10;;;;;;;;;;6277430;22;20604;-87
2022/04/15 20:50:22;;;;;;;4.63;2.60;;;;;;;;;;6310880;22;20205;-88
2022/04/15 20:53:29;;;;;;;4.00;2.75;;;;;;;;;;6304062;22;20167;-84
2022/04/15 20:56:35;;;;;;;5.65;2.47;;;;;;;;;;6303387;22;20173;-86
2022/04/15 20:59:41;;;;;;;4.60;2.47;;;;;;;;;;6322258;22;20166;-89
2022/04/15 21:02:48;;;;;;;3.47;2.20;;;;;;;;;;6306479;22;20224;-88
2022/04/15 21:05:55;;;;;;;5.65;3.15;;;;;;;;;;6323721;22;20202;-88
2022/04/15 21:09:00;;;;;;;6.47;2.65;;;;;;;;;;6321772;22;20164;-83
2022/04/15 21:12:07;;;;;;;6.50;2.95;;;;;;;;;;6323666;22;20165;-87
2022/04/15 21:15:13;;;;;;;4.82;2.25;;;;;;;;;;6324261;22;20214;-89
2022/04/15 21:18:23;;;;;;;5.30;2.42;;;;;;;;;;6305555;22;20165;-88
2022/04/15 21:21:30;;;;;;;3.83;2.30;;;;;;;;;;6322786;22;20180;-90
2022/04/15 21:24:35;;;;;;;4.93;2.38;;;;;;;;;;6321971;22;20213;-89
2022/04/15 21:27:40;;;;;;;3.78;2.22;;;;;;;;;;6303599;22;20157;-89
2022/04/15 21:30:46;;;;;;;3.05;2.17;;;;;;;;;;6305656;22;20237;-89
2022/04/15 21:33:52;;;;;;;3.38;2.33;;;;;;;;;;6323218;22;20165;-87
2022/04/15 21:36:59;;;;;;;4.85;2.30;;;;;;;;;;6322403;22;20165;-87
2022/04/15 21:40:04;;;;;;;3.45;2.40;;;;;;;;;;6322082;22;20169;-88
2022/04/15 21:43:11;;;;;;;3.45;2.30;;;;;;;;;;6324183;22;20173;-83
2022/04/15 21:46:16;;;;;;;3.80;2.40;;;;;;;;;;6323434;22;20261;-88
2022/04/15 21:49:24;;;;;;;3.70;2.42;;;;;;;;;;6324637;22;20192;-87
2022/04/15 21:52:33;;;;;;;4.13;2.45;;;;;;;;;;6326705;22;20165;-88
2022/04/15 21:55:38;;;;;;;3.90;2.17;;;;;;;;;;6305688;22;20620;-88
2022/04/15 21:58:44;;;;;;;2.95;2.20;;;;;;;;;;6323679;22;20165;-87
2022/04/15 22:02:20;;;;;;;3.10;2.17;;;;;;;;;;6325207;22;20152;-88
2022/04/15 22:05:26;;;;;;;3.58;2.22;;;;;;;;;;6306721;22;20253;-86
2022/04/15 22:08:35;;;;;;;3.08;2.40;;;;;;;;;;6323056;22;20235;-87
2022/04/15 22:11:40;;;;;;;8.13;2.22;;;;;;;;;;6324757;22;20168;-89
2022/04/15 22:14:48;;;;;;;3.20;2.28;;;;;;;;;;6324172;22;20209;-85